Ignace, Canada
Current Conditions -  °F | °C
As of 10:00 AM on Wednesday 28 Jan 2015 (Local Time) from CYXL Reporting Station
Overcast Overcast  
Wind Chill: 20°   Ceiling: 6500
Heat Index: 27°   Visibility: 15mi
Dew Point: 25°   Wind: 6mph
Humidity: 93%   Direction: 150°SSE
Pressure: 29.9"   Gusts: NA
Location:  49.42°N, 91.67°W
Report Text: CYXL 281600Z 15005KT 15SM SCT008 BKN065 OVC080 M03/M04 A2990 RMK SF3SC3AC2 PRESFR SLP151
Loading
Personal Weather Stations






























Interactive Weather Map New forecast layout! Learn more

10-Day Weather Forecast

Advertisements
Track Severe Weather on mobile